Time;durP1;ratioP1;P1;durP2;ratioP2;P2;SDS_P1;SDS_P2;PMS_P1;PMS_P2;Temp;Humidity;BMP_temperature;BMP_pressure;BME280_temperature;BME280_humidity;BME280_pressure;Samples;Min_cycle;Max_cycle;Signal;HPM_P1;HPM_P2
2022/10/11 05:49:23;;;;;;;;;1.75;1.75;;;;;13.40;59.52;102060.38;5136936;27;45394;-59
2022/10/11 05:51:48;;;;;;;;;2.25;2.25;;;;;13.43;59.04;102060.28;5116774;27;45348;-59
2022/10/11 05:54:14;;;;;;;;;3.00;2.00;;;;;13.48;59.09;102060.97;5116527;27;45363;-59
2022/10/11 05:56:39;;;;;;;;;1.00;1.00;;;;;13.50;59.22;102069.00;5130235;27;45545;-59
2022/10/11 05:59:05;;;;;;;;;2.00;1.25;;;;;13.53;59.29;102066.19;5136721;27;46181;-59
2022/10/11 06:01:30;;;;;;;;;1.50;1.50;;;;;13.52;59.18;102061.75;5136971;27;45275;-58
2022/10/11 06:03:55;;;;;;;;;2.00;2.00;;;;;13.54;58.85;102062.56;5137033;27;45413;-59
2022/10/11 06:06:21;;;;;;;;;4.00;3.00;;;;;13.53;58.95;102063.50;5137324;27;45206;-60
2022/10/11 06:08:46;;;;;;;;;1.50;1.00;;;;;13.55;58.98;102062.50;5136259;27;45459;-59
2022/10/11 06:11:18;;;;;;;;;1.50;1.00;;;;;13.59;58.53;102058.78;5136956;27;45340;-58
2022/10/11 06:13:43;;;;;;;;;4.25;2.00;;;;;13.62;58.58;102065.84;5136966;27;45396;-59
2022/10/11 06:16:09;;;;;;;;;1.00;1.00;;;;;13.62;58.55;102065.84;5137160;27;45314;-59
2022/10/11 06:18:35;;;;;;;;;2.50;1.00;;;;;13.63;58.49;102073.00;5136935;27;46049;-59
2022/10/11 06:21:01;;;;;;;;;1.00;1.00;;;;;13.61;58.37;102064.06;5137033;27;45336;-60
2022/10/11 06:23:26;;;;;;;;;5.25;1.25;;;;;13.64;58.26;102070.25;5136793;27;45470;-59
2022/10/11 06:25:59;;;;;;;;;1.50;1.25;;;;;13.67;58.77;102074.66;5136931;27;45417;-59
2022/10/11 06:28:27;;;;;;;;;4.50;1.25;;;;;13.69;58.30;102085.38;5136793;27;45374;-59
2022/10/11 06:30:53;;;;;;;;;1.00;0.25;;;;;13.70;58.66;102079.91;5137211;27;45226;-59
2022/10/11 06:33:18;;;;;;;;;3.00;1.00;;;;;13.73;57.97;102089.69;5136896;27;45313;-60
2022/10/11 06:35:43;;;;;;;;;3.00;1.75;;;;;13.72;58.25;102077.16;5137166;27;45242;-59
2022/10/11 06:38:09;;;;;;;;;4.00;0.75;;;;;13.73;58.24;102092.41;5136246;27;49960;-60
2022/10/11 06:40:34;;;;;;;;;3.00;2.00;;;;;13.75;57.83;102093.22;5128563;27;45545;-59
2022/10/11 06:42:59;;;;;;;;;3.75;1.00;;;;;13.73;58.11;102090.59;5115796;27;45411;-59
2022/10/11 06:45:25;;;;;;;;;3.25;1.00;;;;;13.73;57.89;102093.28;5115871;27;45391;-59
2022/10/11 06:47:50;;;;;;;;;2.50;1.25;;;;;13.72;58.13;102094.22;5139239;27;46016;-59
2022/10/11 06:50:15;;;;;;;;;2.50;1.00;;;;;13.73;58.09;102090.59;5120805;27;45664;-58
2022/10/11 06:52:41;;;;;;;;;2.50;2.00;;;;;13.70;58.13;102085.28;5108363;27;45301;-60
2022/10/11 06:55:06;;;;;;;;;2.00;2.00;;;;;13.77;58.43;102092.25;5101706;27;45323;-59
2022/10/11 06:57:32;;;;;;;;;5.00;2.00;;;;;13.80;58.17;102094.81;5101306;27;46052;-59
2022/10/11 06:59:57;;;;;;;;;2.50;2.00;;;;;13.84;58.06;102101.84;5102174;27;45313;-60
2022/10/11 07:02:22;;;;;;;;;2.50;2.00;;;;;13.84;58.27;102096.47;5102260;27;45380;-59
2022/10/11 07:04:48;;;;;;;;;2.50;2.50;;;;;13.87;58.38;102103.53;5102086;27;45713;-59
2022/10/11 07:07:13;;;;;;;;;4.75;2.00;;;;;13.88;57.65;102098.09;5101867;27;46190;-60
2022/10/11 07:09:39;;;;;;;;;3.25;2.50;;;;;13.87;57.57;102099.03;5101058;27;45318;-59
2022/10/11 07:12:04;;;;;;;;;5.00;2.00;;;;;13.90;57.57;102096.22;5101858;27;45255;-59
2022/10/11 07:14:30;;;;;;;;;4.00;3.75;;;;;13.93;57.63;102108.72;5112128;27;45429;-59
2022/10/11 07:16:56;;;;;;;;;2.00;0.50;;;;;13.90;57.56;102100.72;5101791;27;46300;-58
2022/10/11 07:19:22;;;;;;;;;1.75;1.75;;;;;13.93;57.39;102106.91;5101844;27;45279;-59
2022/10/11 07:21:47;;;;;;;;;3.00;2.00;;;;;13.96;57.33;102113.97;5102045;27;45325;-59
2022/10/11 07:24:12;;;;;;;;;3.25;2.00;;;;;13.97;57.08;102113.91;5101306;27;45554;-59
2022/10/11 07:26:38;;;;;;;;;2.00;2.00;;;;;13.97;56.73;102113.91;5101718;27;46306;-59
2022/10/11 07:29:04;;;;;;;;;4.00;4.00;;;;;14.00;56.77;102119.19;5101818;27;45242;-58
2022/10/11 07:31:29;;;;;;;;;6.00;4.75;;;;;14.00;57.12;102119.19;5101882;27;45328;-59
2022/10/11 07:33:55;;;;;;;;;4.50;3.50;;;;;14.05;56.85;102118.13;5101606;27;45357;-59
2022/10/11 07:36:22;;;;;;;;;4.75;3.00;;;;;14.08;56.94;102120.72;5101638;27;45934;-59
2022/10/11 07:38:48;;;;;;;;;6.50;3.75;;;;;14.11;57.19;102121.50;5101307;27;45338;-59
2022/10/11 07:41:14;;;;;;;;;3.00;3.00;;;;;14.14;56.60;102124.06;5106912;27;45532;-59
2022/10/11 07:43:42;;;;;;;;;1.25;1.25;;;;;14.18;55.88;102127.53;5122357;27;45273;-59
2022/10/11 07:46:07;;;;;;;;;2.00;2.00;;;;;14.19;56.02;102127.47;5121820;27;46073;-60
2022/10/11 07:48:34;;;;;;;;;3.50;1.75;;;;;14.22;55.66;102132.72;5116920;27;45263;-59
2022/10/11 07:51:11;;;;;;;;;4.00;3.00;;;;;14.23;56.07;102139.00;5101275;27;45397;-59
2022/10/11 07:53:41;;;;;;;;;6.00;3.25;;;;;14.26;56.08;102146.97;5100928;27;45462;-59
2022/10/11 07:56:09;;;;;;;;;3.75;2.50;;;;;14.26;54.87;102141.59;5101242;27;45290;-60
2022/10/11 07:58:34;;;;;;;;;3.00;3.00;;;;;14.27;55.39;102140.66;5101291;27;45593;-59
2022/10/11 08:01:00;;;;;;;;;3.00;3.00;;;;;14.30;54.83;102148.59;5100184;27;45476;-60
2022/10/11 08:03:25;;;;;;;;;2.00;2.00;;;;;14.31;54.90;102144.97;5101171;27;45345;-59
2022/10/11 08:05:51;;;;;;;;;4.50;3.50;;;;;14.31;55.09;102150.38;5101144;27;46152;-59
2022/10/11 08:08:17;;;;;;;;;2.75;2.75;;;;;14.34;55.03;102150.25;5100519;27;45377;-59
2022/10/11 08:10:43;;;;;;;;;5.00;2.00;;;;;14.37;54.97;102156.41;5100927;27;45493;-60
2022/10/11 08:13:08;;;;;;;;;3.00;3.00;;;;;14.27;54.92;102133.44;5100164;27;45308;-60
2022/10/11 08:15:33;;;;;;;;;2.00;2.00;;;;;14.39;54.09;102149.16;5100807;27;45449;-60
2022/10/11 08:17:59;;;;;;;;;2.50;2.50;;;;;14.40;54.76;102155.44;5099615;27;45302;-60
2022/10/11 08:20:24;;;;;;;;;1.00;1.00;;;;;14.42;54.83;102153.56;5101257;27;45490;-59
2022/10/11 08:22:49;;;;;;;;;2.00;2.00;;;;;14.42;54.51;102153.56;5099650;27;45331;-59
2022/10/11 08:25:15;;;;;;;;;2.00;2.00;;;;;14.45;55.09;102160.66;5100605;27;48829;-60
2022/10/11 08:27:40;;;;;;;;;1.75;1.50;;;;;14.47;54.99;102165.03;5100351;27;48520;-60
2022/10/11 08:30:06;;;;;;;;;3.50;3.50;;;;;14.49;54.34;102160.47;5101008;27;45333;-60
2022/10/11 08:32:31;;;;;;;;;4.50;3.00;;;;;14.51;54.73;102166.69;5100824;27;45344;-59
2022/10/11 08:34:57;;;;;;;;;3.00;3.00;;;;;14.50;54.45;102162.22;5100643;27;46005;-59
2022/10/11 08:37:22;;;;;;;;;4.75;4.75;;;;;14.52;54.31;102164.88;5100854;27;45260;-59
2022/10/11 08:39:47;;;;;;;;;5.00;2.00;;;;;14.53;54.27;102166.66;5100214;27;45257;-59
2022/10/11 08:42:41;;;;;;;;;3.00;3.00;;;;;14.51;54.14;102168.50;5114498;27;45426;-60
2022/10/11 08:45:15;;;;;;;;;5.00;3.00;;;;;14.47;54.23;102161.47;5121138;27;45210;-60
2022/10/11 08:47:44;;;;;;;;;3.50;3.50;;;;;14.54;54.38;102169.28;5121413;27;65201;-59
2022/10/11 08:50:22;;;;;;;;;6.50;3.00;;;;;14.60;54.07;102168.16;5100384;27;45380;-60
2022/10/11 08:53:03;;;;;;;;;3.50;3.50;;;;;14.65;54.45;102167.00;5107761;27;45266;-60
2022/10/11 08:55:58;;;;;;;;;5.50;3.00;;;;;14.69;53.92;102175.88;5120621;27;46271;-59
2022/10/11 08:58:36;;;;;;;;;4.25;2.50;;;;;14.74;53.77;102173.88;5111193;27;45311;-59
2022/10/11 09:01:03;;;;;;;;;3.00;3.00;;;;;14.73;53.10;102172.09;5120969;27;45340;-59
2022/10/11 09:03:37;;;;;;;;;3.25;3.25;;;;;14.76;53.58;102180.97;5120646;27;45342;-60
2022/10/11 09:06:29;;;;;;;;;9.75;4.25;;;;;14.80;53.94;102179.00;5120871;27;45433;-60
2022/10/11 09:09:18;;;;;;;;;4.75;4.00;;;;;14.82;53.23;102177.13;5120348;27;45216;-59
2022/10/11 09:11:52;;;;;;;;;2.75;2.75;;;;;14.84;53.57;102172.56;5118778;27;45371;-60
2022/10/11 09:14:43;;;;;;;;;5.50;4.25;;;;;14.85;53.09;102170.75;5120551;27;45556;-59
2022/10/11 09:17:38;;;;;;;;;4.75;3.75;;;;;14.86;53.12;102170.69;5120599;27;46356;-59
2022/10/11 09:20:31;;;;;;;;;3.50;2.25;;;;;14.90;53.79;102168.72;5120420;27;45325;-59
2022/10/11 09:23:10;;;;;;;;;3.50;2.00;;;;;14.93;53.79;102166.78;5120291;27;45490;-60
2022/10/11 09:25:48;;;;;;;;;3.00;3.00;;;;;14.93;52.99;102164.06;5120724;27;45331;-59
2022/10/11 09:28:31;;;;;;;;;4.00;2.00;;;;;15.00;54.06;102162.00;5119297;27;45483;-59
2022/10/11 09:30:57;;;;;;;;;2.50;2.50;;;;;15.01;52.90;102153.84;5120334;27;45353;-60
2022/10/11 09:33:32;;;;;;;;;2.25;2.25;;;;;15.06;53.01;102159.03;5120011;27;45456;-60
2022/10/11 09:35:58;;;;;;;;;4.00;3.25;;;;;15.04;53.02;102167.22;5120407;27;45425;-59
2022/10/11 09:38:45;;;;;;;;;7.00;4.00;;;;;15.09;53.31;102167.91;5120003;27;46165;-59
2022/10/11 09:41:13;;;;;;;;;4.50;3.00;;;;;15.12;52.79;102165.06;5114503;27;45157;-60
2022/10/11 09:43:39;;;;;;;;;4.50;3.25;;;;;15.15;53.19;102166.75;5099838;27;45329;-59
2022/10/11 09:46:36;;;;;;;;;3.00;3.00;;;;;15.16;53.27;102152.28;5099515;27;45593;-58
2022/10/11 09:49:08;;;;;;;;;4.00;2.50;;;;;15.20;53.58;102151.25;5098734;27;46510;-60
2022/10/11 09:51:34;;;;;;;;;3.50;3.50;;;;;15.20;53.65;102151.25;5099780;27;45337;-60
2022/10/11 09:54:05;;;;;;;;;2.00;1.00;;;;;15.28;53.59;102159.00;5099149;27;45535;-59
2022/10/11 09:56:33;;;;;;;;;6.25;3.25;;;;;15.29;53.38;102140.03;5099486;27;45305;-60
2022/10/11 09:59:16;;;;;;;;;3.25;3.25;;;;;15.38;53.77;102152.28;5099247;27;46197;-59
2022/10/11 10:01:41;;;;;;;;;3.00;3.00;;;;;15.41;53.23;102144.00;5099580;27;45406;-59
2022/10/11 10:04:11;;;;;;;;;6.00;4.00;;;;;15.47;53.60;102151.88;5099703;27;45318;-60
2022/10/11 10:06:38;;;;;;;;;2.25;2.25;;;;;15.49;53.80;102150.84;5099294;27;45460;-60
2022/10/11 10:09:25;;;;;;;;;4.25;4.25;;;;;15.53;53.80;102151.59;5098276;27;45501;-59
2022/10/11 10:11:51;;;;;;;;;3.75;3.25;;;;;15.56;54.08;102145.22;5099269;27;45391;-60
2022/10/11 10:14:28;;;;;;;;;3.50;3.50;;;;;15.54;54.23;102141.69;5099431;27;45705;-59
2022/10/11 10:17:01;;;;;;;;;3.00;3.00;;;;;15.60;53.62;102147.69;5099279;27;45337;-60
2022/10/11 10:19:27;;;;;;;;;5.00;5.00;;;;;15.62;54.00;102153.03;5099095;27;46515;-59
2022/10/11 10:21:54;;;;;;;;;5.50;5.50;;;;;15.66;53.71;102150.13;5099104;27;45383;-59
2022/10/11 10:24:34;;;;;;;;;5.50;5.00;;;;;15.72;54.03;102149.00;5100255;27;45385;-59
2022/10/11 10:27:09;;;;;;;;;5.00;2.00;;;;;15.78;53.85;102143.31;5111052;27;45957;-59
2022/10/11 10:29:36;;;;;;;;;3.75;3.75;;;;;15.83;53.41;102143.94;5122880;27;46393;-58
2022/10/11 10:32:10;;;;;;;;;4.25;4.00;;;;;15.91;53.50;102141.78;5123016;27;45352;-58
2022/10/11 10:34:40;;;;;;;;;4.50;4.00;;;;;15.96;52.85;102141.59;5123065;27;45228;-60
2022/10/11 10:37:28;;;;;;;;;3.25;2.50;;;;;16.05;53.04;102141.16;5123037;27;45428;-59
2022/10/11 10:40:07;;;;;;;;;6.00;3.00;;;;;16.11;52.35;102140.88;5122786;27;46287;-59
2022/10/11 10:42:33;;;;;;;;;5.50;5.00;;;;;16.17;52.84;102140.56;5105508;27;45314;-59
2022/10/11 10:44:59;;;;;;;;;4.00;4.00;;;;;16.30;52.82;102130.94;5101870;27;45483;-59
2022/10/11 10:47:46;;;;;;;;;5.75;4.50;;;;;16.45;53.16;102138.31;5117143;27;45405;-59
2022/10/11 10:50:38;;;;;;;;;2.75;2.75;;;;;16.57;52.03;102128.72;5102240;27;45490;-59
2022/10/11 10:53:22;;;;;;;;;5.50;4.75;;;;;16.70;51.60;102135.31;5111181;27;45391;-59
2022/10/11 10:55:58;;;;;;;;;5.50;4.00;;;;;16.81;51.32;102130.25;5122675;27;45290;-59
2022/10/11 10:58:45;;;;;;;;;4.50;3.50;;;;;17.09;51.13;102131.59;5122690;27;45376;-59
2022/10/11 11:01:22;;;;;;;;;4.50;3.50;;;;;17.47;50.60;102126.88;5122823;27;45511;-59
2022/10/11 11:04:26;;;;;;;;;3.25;2.00;;;;;17.94;49.54;102122.53;5122386;27;45338;-59
2022/10/11 11:06:58;;;;;;;;;3.00;3.00;;;;;18.42;48.49;102127.06;5122169;27;45307;-59
2022/10/11 11:09:48;;;;;;;;;6.75;6.00;;;;;18.88;47.47;102125.28;5122394;27;45419;-60
2022/10/11 11:12:49;;;;;;;;;5.00;4.00;;;;;19.32;45.96;102129.06;5122055;27;45329;-59
2022/10/11 11:15:28;;;;;;;;;8.75;6.00;;;;;19.79;44.91;102127.06;5121955;27;45172;-60
2022/10/11 11:18:24;;;;;;;;;4.75;4.75;;;;;20.35;44.41;102118.03;5122575;27;45425;-59
2022/10/11 11:21:11;;;;;;;;;6.75;4.75;;;;;21.08;42.25;102115.84;5122479;27;45379;-65
2022/10/11 11:23:47;;;;;;;;;6.00;6.00;;;;;21.97;40.27;102116.00;5121496;27;46251;-65
2022/10/11 11:26:29;;;;;;;;;4.00;4.00;;;;;22.94;39.10;102110.63;5122290;27;45487;-66
2022/10/11 11:29:19;;;;;;;;;6.25;3.75;;;;;24.06;36.59;102109.97;5122306;27;45409;-67
2022/10/11 11:31:44;;;;;;;;;3.50;3.50;;;;;25.15;34.99;102107.28;5122342;27;45575;-67
2022/10/11 11:34:26;;;;;;;;;5.00;4.00;;;;;26.22;33.34;102104.22;5122136;27;46296;-67
2022/10/11 11:37:33;;;;;;;;;5.00;3.00;;;;;27.38;31.31;102097.94;5122338;27;45210;-67
2022/10/11 11:40:06;;;;;;;;;3.00;3.00;;;;;28.65;29.12;102090.97;5107342;27;45418;-62
2022/10/11 11:42:46;;;;;;;;;3.50;3.50;;;;;29.67;27.76;102087.66;5104933;27;45261;-60
2022/10/11 11:45:26;;;;;;;;;4.00;3.00;;;;;30.61;26.32;102076.59;5101446;27;45732;-59
2022/10/11 11:48:12;;;;;;;;;5.00;4.00;;;;;31.44;25.04;102090.41;5114982;27;45500;-59
2022/10/11 11:50:43;;;;;;;;;3.00;3.00;;;;;32.15;24.12;102076.59;5101292;27;45169;-58
2022/10/11 11:53:36;;;;;;;;;3.25;3.25;;;;;32.83;23.55;102075.06;5100936;27;45349;-58
2022/10/11 11:56:40;;;;;;;;;3.25;3.25;;;;;33.44;22.29;102079.63;5101004;27;46537;-59
2022/10/11 11:59:09;;;;;;;;;4.00;2.75;;;;;33.89;21.92;102067.53;5100598;27;45314;-58
2022/10/11 12:02:32;;;;;;;;;4.50;4.50;;;;;34.43;21.19;102058.91;5101099;27;45403;-59
2022/10/11 12:04:59;;;;;;;;;3.25;3.25;;;;;34.93;21.65;102060.78;5037546;28;45495;-60
2022/10/11 12:07:27;;;;;;;;;6.25;3.00;;;;;35.33;20.85;102066.78;5037822;28;45403;-60
2022/10/11 12:10:13;;;;;;;;;5.75;3.00;;;;;35.66;20.61;102057.59;5076318;27;45588;-60
2022/10/11 12:12:39;;;;;;;;;3.25;2.25;;;;;35.95;19.90;102059.34;5101152;27;45328;-59
2022/10/11 12:15:07;;;;;;;;;3.25;2.50;;;;;36.09;19.23;102051.88;5100691;27;45512;-60
2022/10/11 12:17:33;;;;;;;;;2.00;1.00;;;;;36.15;18.80;102061.38;5101060;27;45400;-59
2022/10/11 12:19:59;;;;;;;;;6.75;2.75;;;;;36.28;18.62;102051.16;5099956;27;45469;-59
2022/10/11 12:22:27;;;;;;;;;3.75;2.75;;;;;36.48;18.95;102050.38;5100538;27;45431;-59
2022/10/11 12:25:19;;;;;;;;;3.00;3.00;;;;;36.46;19.03;102045.00;5100336;27;45480;-60
2022/10/11 12:27:54;;;;;;;;;3.25;2.50;;;;;36.56;18.73;102039.88;5100295;27;47098;-61
2022/10/11 12:30:52;;;;;;;;;5.50;2.50;;;;;36.78;18.67;102036.94;5100802;27;45380;-59
2022/10/11 12:33:48;;;;;;;;;4.75;2.50;;;;;36.94;18.39;102034.59;5107998;27;45224;-59
2022/10/11 12:36:32;;;;;;;;;2.75;2.75;;;;;36.96;18.54;102031.59;5119991;27;46266;-59
2022/10/11 12:39:19;;;;;;;;;4.25;2.00;;;;;36.88;18.12;102032.69;5120467;27;46067;-59
2022/10/11 12:41:52;;;;;;;;;3.25;2.25;;;;;36.84;18.36;102030.50;5111041;27;45478;-59
2022/10/11 12:44:17;;;;;;;;;5.00;1.75;;;;;36.63;18.40;102028.72;5100324;27;45286;-60
2022/10/11 12:46:56;;;;;;;;;2.00;2.00;;;;;36.37;18.77;102033.16;5108779;27;45339;-60
2022/10/11 12:49:55;;;;;;;;;2.25;2.25;;;;;35.69;19.29;102027.56;5101099;27;45482;-59
2022/10/11 12:52:39;;;;;;;;;2.25;2.25;;;;;34.41;20.45;102025.69;5100195;27;45287;-60
2022/10/11 12:55:25;;;;;;;;;2.50;2.50;;;;;33.13;22.20;102028.81;5099779;27;45251;-60
2022/10/11 12:58:04;;;;;;;;;1.00;1.00;;;;;31.87;23.43;102031.75;5109366;27;45387;-60
2022/10/11 13:00:33;;;;;;;;;3.00;1.75;;;;;30.97;23.99;102024.53;5119884;27;47150;-60
2022/10/11 13:03:04;;;;;;;;;3.25;3.00;;;;;30.67;24.46;102019.69;5120392;27;45325;-60
2022/10/11 13:05:45;;;;;;;;;4.50;3.25;;;;;30.92;24.36;102017.81;5120685;27;45332;-60
2022/10/11 13:08:17;;;;;;;;;2.00;2.00;;;;;31.26;23.99;102012.09;5120338;27;45405;-60
2022/10/11 13:10:46;;;;;;;;;4.25;3.00;;;;;31.63;23.68;102014.34;5120655;27;46124;-59
2022/10/11 13:13:25;;;;;;;;;1.25;0.50;;;;;32.08;23.11;102017.28;5120406;27;45340;-59
2022/10/11 13:15:53;;;;;;;;;4.00;4.00;;;;;32.38;22.23;102007.28;5120698;27;45259;-60
2022/10/11 13:18:22;;;;;;;;;3.00;3.00;;;;;32.74;22.57;102010.38;5120388;27;45491;-59
2022/10/11 13:20:47;;;;;;;;;2.00;2.00;;;;;33.15;22.49;102010.91;5120466;27;46730;-59
2022/10/11 13:23:23;;;;;;;;;1.50;1.50;;;;;33.50;21.73;102012.16;5119935;27;45337;-59
2022/10/11 13:25:49;;;;;;;;;6.00;2.75;;;;;33.90;21.88;102005.28;5120662;27;45353;-60
2022/10/11 13:28:15;;;;;;;;;2.25;2.25;;;;;34.24;21.28;102010.25;5120142;27;45279;-59
2022/10/11 13:30:47;;;;;;;;;2.00;2.00;;;;;34.40;20.56;102000.81;5120424;27;45322;-60
2022/10/11 13:33:23;;;;;;;;;1.25;1.00;;;;;34.72;20.57;101991.06;5120192;27;45258;-60
2022/10/11 13:35:51;;;;;;;;;3.75;3.25;;;;;34.95;20.39;101996.50;5120314;27;45380;-61
2022/10/11 13:38:24;;;;;;;;;3.25;3.25;;;;;35.28;20.35;101997.69;5119869;27;45457;-61
2022/10/11 13:40:50;;;;;;;;;3.00;3.00;;;;;35.54;20.12;101991.44;5117608;27;45247;-60
2022/10/11 13:43:26;;;;;;;;;6.50;4.00;;;;;35.53;20.13;101981.34;5099648;27;45343;-60
2022/10/11 13:45:53;;;;;;;;;4.00;4.00;;;;;35.58;19.34;101984.34;5099350;27;45393;-61
2022/10/11 13:48:19;;;;;;;;;5.00;4.00;;;;;35.59;20.03;101989.75;5113977;27;45295;-60
2022/10/11 13:51:04;;;;;;;;;3.00;3.00;;;;;35.82;19.86;101969.94;5099235;27;46891;-60
2022/10/11 13:53:29;;;;;;;;;2.00;2.00;;;;;35.90;19.47;101977.28;5099095;27;45476;-60
2022/10/11 13:55:58;;;;;;;;;5.00;3.75;;;;;36.02;19.28;101964.44;5099525;27;45393;-61
2022/10/11 13:58:39;;;;;;;;;3.00;3.00;;;;;36.14;19.20;101967.50;5099440;27;45525;-59
2022/10/11 14:01:16;;;;;;;;;3.00;2.25;;;;;36.24;19.40;101965.22;5111688;27;45298;-60
2022/10/11 14:03:46;;;;;;;;;3.75;3.00;;;;;36.38;19.20;101964.19;5123487;27;45426;-60
2022/10/11 14:06:12;;;;;;;;;0.50;0.50;;;;;36.44;19.04;101963.34;5123785;27;45336;-60
2022/10/11 14:08:54;;;;;;;;;3.00;3.00;;;;;36.41;19.09;101974.09;5123052;27;45413;-60
2022/10/11 14:11:38;;;;;;;;;4.00;3.00;;;;;36.48;18.52;101966.56;5122731;27;45273;-60
2022/10/11 14:14:31;;;;;;;;;2.50;2.00;;;;;36.36;18.69;101963.53;5122952;27;45321;-60
2022/10/11 14:17:03;;;;;;;;;4.00;2.75;;;;;36.35;18.55;101957.06;5123147;27;45427;-59
2022/10/11 14:19:28;;;;;;;;;2.00;2.00;;;;;36.22;18.27;101951.47;5123387;27;45380;-59
2022/10/11 14:21:53;;;;;;;;;4.75;3.75;;;;;36.14;18.74;101953.56;5122998;27;50456;-59
2022/10/11 14:24:19;;;;;;;;;1.25;0.25;;;;;36.05;18.94;101950.09;5123242;27;45301;-60
2022/10/11 14:26:48;;;;;;;;;3.00;3.00;;;;;35.95;19.01;101953.25;5123442;27;45399;-60
2022/10/11 14:29:23;;;;;;;;;2.00;2.00;;;;;35.88;19.36;101951.50;5123355;27;46025;-60
2022/10/11 14:31:49;;;;;;;;;2.00;2.00;;;;;35.79;19.15;101952.75;5123253;27;45270;-60
2022/10/11 14:34:18;;;;;;;;;3.50;1.75;;;;;35.66;19.40;101942.34;5123094;27;45310;-59
2022/10/11 14:36:44;;;;;;;;;1.75;1.75;;;;;35.50;19.36;101951.91;5122911;27;45423;-59
2022/10/11 14:39:15;;;;;;;;;2.00;2.00;;;;;35.49;19.12;101944.59;5122772;27;45375;-59
2022/10/11 14:41:41;;;;;;;;;2.00;1.75;;;;;35.40;19.43;101944.97;5113418;27;45434;-61
2022/10/11 14:44:06;;;;;;;;;3.50;2.25;;;;;35.31;19.78;101948.97;5102200;27;45376;-60
2022/10/11 14:46:32;;;;;;;;;3.75;2.00;;;;;35.33;19.76;101958.00;5108562;27;45389;-60
2022/10/11 14:48:57;;;;;;;;;2.00;2.00;;;;;35.29;19.56;101943.63;5110703;27;46401;-60
2022/10/11 14:51:32;;;;;;;;;1.25;1.25;;;;;35.13;19.48;101953.09;5102277;27;46161;-60
2022/10/11 14:53:58;;;;;;;;;2.50;2.00;;;;;34.94;19.61;101948.25;5101837;27;45477;-58
2022/10/11 14:56:23;;;;;;;;;4.00;2.00;;;;;34.77;19.67;101941.25;5102495;27;45401;-59
2022/10/11 14:58:49;;;;;;;;;2.00;2.00;;;;;34.65;19.97;101937.22;5102026;27;46009;-59
2022/10/11 15:01:15;;;;;;;;;0.75;0.75;;;;;34.52;19.77;101944.41;5101973;27;45347;-60
2022/10/11 15:03:41;;;;;;;;;3.00;3.00;;;;;34.36;20.26;101943.81;5102314;27;45311;-59
2022/10/11 15:06:15;;;;;;;;;5.00;2.00;;;;;34.21;19.95;101938.22;5102306;27;45428;-59
2022/10/11 15:08:41;;;;;;;;;3.00;2.00;;;;;34.09;20.84;101939.81;5101595;27;45511;-60
2022/10/11 15:11:06;;;;;;;;;2.00;2.00;;;;;34.05;20.35;101939.31;5101731;27;45404;-60
2022/10/11 15:13:31;;;;;;;;;2.00;2.00;;;;;33.94;20.56;101939.81;5101918;27;45330;-59
2022/10/11 15:15:57;;;;;;;;;1.00;1.00;;;;;33.67;20.59;101910.78;5102072;27;45532;-60
2022/10/11 15:18:22;;;;;;;;;1.00;1.00;;;;;33.59;21.20;101943.41;5101930;27;45400;-60
2022/10/11 15:20:47;;;;;;;;;2.25;1.75;;;;;33.49;21.63;101937.25;5101529;27;46315;-59
2022/10/11 15:23:13;;;;;;;;;2.00;2.00;;;;;33.34;20.83;101934.47;5101535;27;45403;-59
2022/10/11 15:25:40;;;;;;;;;2.00;2.00;;;;;33.08;21.28;101939.59;5102024;27;45547;-59
2022/10/11 15:28:06;;;;;;;;;3.50;1.75;;;;;32.85;21.70;101934.91;5101756;27;45325;-58
2022/10/11 15:30:35;;;;;;;;;2.00;2.00;;;;;32.55;22.11;101927.53;5101708;27;45424;-60
2022/10/11 15:33:01;;;;;;;;;2.75;2.00;;;;;32.21;22.11;101926.03;5112433;27;45329;-60
2022/10/11 15:35:28;;;;;;;;;2.50;2.00;;;;;31.83;22.91;101922.22;5121138;27;45480;-60
2022/10/11 15:37:57;;;;;;;;;2.75;0.00;;;;;31.41;23.11;101932.75;5112173;27;45333;-59
2022/10/11 15:40:26;;;;;;;;;2.00;1.50;;;;;30.94;23.37;101930.75;5116852;27;46793;-59
2022/10/11 15:42:53;;;;;;;;;2.00;2.00;;;;;30.47;23.98;101923.06;5121128;27;45349;-60
2022/10/11 15:45:20;;;;;;;;;1.25;1.25;;;;;30.06;24.23;101922.16;5122193;27;45329;-60
2022/10/11 15:47:46;;;;;;;;;2.25;2.25;;;;;29.68;24.80;101919.91;5121747;27;45446;-60
2022/10/11 15:50:33;;;;;;;;;3.00;3.00;;;;;29.36;25.94;101923.38;5101351;27;45499;-59
2022/10/11 15:53:16;;;;;;;;;1.00;1.00;;;;;28.99;26.22;101920.88;5110706;27;45329;-59
2022/10/11 15:55:44;;;;;;;;;3.25;3.25;;;;;28.70;26.49;101923.00;5121884;27;45378;-60
2022/10/11 15:58:24;;;;;;;;;8.00;3.00;;;;;28.31;26.61;101905.94;5121775;27;45449;-60
2022/10/11 16:00:53;;;;;;;;;2.00;2.00;;;;;27.95;27.09;101922.41;5121827;27;45337;-60
2022/10/11 16:03:19;;;;;;;;;3.50;3.50;;;;;27.65;27.74;101915.31;5121542;27;45393;-59
2022/10/11 16:05:46;;;;;;;;;4.25;2.00;;;;;27.48;28.25;101914.22;5121629;27;45263;-60
2022/10/11 16:08:12;;;;;;;;;3.00;2.00;;;;;27.39;28.04;101920.63;5121168;27;45486;-59
2022/10/11 16:10:38;;;;;;;;;2.50;2.50;;;;;27.27;28.03;101910.84;5121517;27;45341;-61
2022/10/11 16:13:04;;;;;;;;;2.75;2.75;;;;;27.10;28.36;101919.88;5121359;27;45342;-60
2022/10/11 16:15:29;;;;;;;;;3.25;3.25;;;;;26.97;28.65;101913.81;5121692;27;45219;-60
2022/10/11 16:17:54;;;;;;;;;2.75;2.75;;;;;26.81;28.98;101927.28;5120871;27;45562;-59
2022/10/11 16:20:21;;;;;;;;;2.75;2.75;;;;;26.64;29.52;101920.63;5121789;27;45296;-60
2022/10/11 16:22:50;;;;;;;;;5.25;3.25;;;;;26.44;29.72;101917.03;5120003;27;45464;-60
2022/10/11 16:25:16;;;;;;;;;4.75;1.75;;;;;26.20;29.83;101919.31;5121411;27;45423;-60
2022/10/11 16:27:43;;;;;;;;;2.00;2.00;;;;;25.92;30.24;101919.13;5121097;27;45203;-60
2022/10/11 16:30:10;;;;;;;;;3.75;2.75;;;;;25.61;30.57;101925.66;5121161;27;46916;-59
2022/10/11 16:32:36;;;;;;;;;3.00;3.00;;;;;25.32;30.88;101927.41;5120501;27;45369;-60
2022/10/11 16:35:02;;;;;;;;;3.00;3.00;;;;;25.02;31.61;101922.72;5121504;27;45770;-60
2022/10/11 16:37:29;;;;;;;;;5.75;3.00;;;;;24.67;32.14;101928.56;5120641;27;45667;-57
2022/10/11 16:39:54;;;;;;;;;3.75;3.75;;;;;24.37;32.85;101935.66;5121118;27;46213;-57
2022/10/11 16:42:20;;;;;;;;;4.25;3.75;;;;;24.12;33.29;101931.34;5105622;27;45467;-59
2022/10/11 16:44:45;;;;;;;;;4.00;4.00;;;;;23.89;33.42;101937.00;5100792;27;45483;-57
2022/10/11 16:47:10;;;;;;;;;4.25;4.25;;;;;23.68;34.01;101929.56;5114352;27;45651;-58
2022/10/11 16:49:37;;;;;;;;;2.50;2.00;;;;;23.47;34.00;101933.16;5100412;27;45288;-57
2022/10/11 16:52:03;;;;;;;;;2.00;2.00;;;;;23.30;34.56;101931.78;5099461;27;45349;-57
2022/10/11 16:54:30;;;;;;;;;2.50;2.50;;;;;23.11;34.87;101926.06;5100017;27;45552;-57
2022/10/11 16:56:56;;;;;;;;;5.00;2.00;;;;;23.00;35.39;101933.25;5099762;27;45325;-58
2022/10/11 16:59:22;;;;;;;;;4.00;2.75;;;;;22.87;35.58;101939.81;5100247;27;45407;-56
2022/10/11 17:01:47;;;;;;;;;3.75;2.75;;;;;22.74;36.33;101947.19;5114530;27;45319;-58
2022/10/11 17:04:13;;;;;;;;;4.25;3.00;;;;;22.62;36.04;101947.16;5112152;27;45351;-57
2022/10/11 17:06:39;;;;;;;;;4.25;4.25;;;;;22.50;35.96;101937.16;5100043;27;45365;-57
2022/10/11 17:09:06;;;;;;;;;5.00;3.50;;;;;22.40;36.35;101941.59;5099825;27;46070;-57
2022/10/11 17:11:32;;;;;;;;;4.00;3.75;;;;;22.25;37.03;101940.03;5100106;27;45401;-57
2022/10/11 17:13:59;;;;;;;;;3.25;3.25;;;;;22.16;36.70;101946.19;5100063;27;45383;-57
2022/10/11 17:16:25;;;;;;;;;3.75;3.75;;;;;22.09;37.03;101944.91;5099770;27;45510;-57
2022/10/11 17:18:50;;;;;;;;;5.25;4.00;;;;;21.97;37.52;101941.22;5099771;27;45281;-57
2022/10/11 17:21:18;;;;;;;;;3.00;3.00;;;;;21.83;37.92;101944.97;5099390;27;45313;-57
2022/10/11 17:23:44;;;;;;;;;6.25;5.00;;;;;21.73;38.34;101943.03;5099882;27;45385;-58
2022/10/11 17:26:14;;;;;;;;;5.75;4.00;;;;;21.66;38.18;101945.34;5099668;27;45310;-57
2022/10/11 17:28:39;;;;;;;;;5.75;4.25;;;;;21.57;38.73;101937.81;5099869;27;45337;-58
2022/10/11 17:31:06;;;;;;;;;4.75;4.75;;;;;21.49;38.58;101937.50;5099525;27;45342;-57
2022/10/11 17:33:32;;;;;;;;;3.50;3.50;;;;;21.41;38.78;101940.78;5099895;27;45607;-58